sensor_id;sensor_type;location;lat;lon;timestamp;pressure;altitude;pressure_sealevel;temperature;humidity
37202;BME280;37799;52.390;6.136;2024-02-21T00:00:47;102092.88;;;9.47;100.00
37202;BME280;37799;52.390;6.136;2024-02-21T00:03:12;102087.69;;;9.50;100.00
37202;BME280;37799;52.390;6.136;2024-02-21T00:05:37;102087.72;;;9.45;100.00
37202;BME280;37799;52.390;6.136;2024-02-21T00:08:03;102085.97;;;9.57;100.00
37202;BME280;37799;52.390;6.136;2024-02-21T00:10:28;102085.13;;;9.49;100.00
37202;BME280;37799;52.390;6.136;2024-02-21T00:12:54;102085.13;;;9.49;100.00
37202;BME280;37799;52.390;6.136;2024-02-21T00:15:19;102088.59;;;9.51;100.00
37202;BME280;37799;52.390;6.136;2024-02-21T00:17:45;102086.00;;;9.52;100.00
37202;BME280;37799;52.390;6.136;2024-02-21T00:20:10;102091.13;;;9.60;100.00
37202;BME280;37799;52.390;6.136;2024-02-21T00:22:36;102085.13;;;9.64;100.00
37202;BME280;37799;52.390;6.136;2024-02-21T00:25:02;102082.50;;;9.62;100.00
37202;BME280;37799;52.390;6.136;2024-02-21T00:27:28;102079.09;;;9.56;100.00
37202;BME280;37799;52.390;6.136;2024-02-21T00:29:53;102082.50;;;9.68;100.00
37202;BME280;37799;52.390;6.136;2024-02-21T00:32:18;102074.75;;;9.59;100.00
37202;BME280;37799;52.390;6.136;2024-02-21T00:34:44;102069.59;;;9.55;100.00
37202;BME280;37799;52.390;6.136;2024-02-21T00:37:09;102066.13;;;9.60;100.00
37202;BME280;37799;52.390;6.136;2024-02-21T00:39:34;102069.56;;;9.68;100.00
37202;BME280;37799;52.390;6.136;2024-02-21T00:41:59;102059.25;;;9.64;100.00
37202;BME280;37799;52.390;6.136;2024-02-21T00:44:25;102063.56;;;9.57;100.00
37202;BME280;37799;52.390;6.136;2024-02-21T00:46:50;102068.69;;;9.72;100.00
37202;BME280;37799;52.390;6.136;2024-02-21T00:49:16;102055.78;;;9.63;100.00
37202;BME280;37799;52.390;6.136;2024-02-21T00:51:41;102047.16;;;9.66;100.00
37202;BME280;37799;52.390;6.136;2024-02-21T00:54:06;102042.88;;;9.57;100.00
37202;BME280;37799;52.390;6.136;2024-02-21T00:56:31;102038.53;;;9.61;100.00
37202;BME280;37799;52.390;6.136;2024-02-21T00:58:57;102048.91;;;9.64;100.00
37202;BME280;37799;52.390;6.136;2024-02-21T01:01:24;102034.25;;;9.58;100.00
37202;BME280;37799;52.390;6.136;2024-02-21T01:03:50;102036.81;;;9.63;100.00
37202;BME280;37799;52.390;6.136;2024-02-21T01:06:19;102040.31;;;9.53;100.00
37202;BME280;37799;52.390;6.136;2024-02-21T01:08:44;102040.31;;;9.53;100.00
37202;BME280;37799;52.390;6.136;2024-02-21T01:11:09;102033.41;;;9.52;100.00
37202;BME280;37799;52.390;6.136;2024-02-21T01:13:34;102051.44;;;9.71;100.00
37202;BME280;37799;52.390;6.136;2024-02-21T01:16:00;102042.81;;;9.72;100.00
37202;BME280;37799;52.390;6.136;2024-02-21T01:18:25;102036.84;;;9.54;100.00
37202;BME280;37799;52.390;6.136;2024-02-21T01:20:51;102040.28;;;9.56;100.00
37202;BME280;37799;52.390;6.136;2024-02-21T01:23:16;102029.06;;;9.67;100.00
37202;BME280;37799;52.390;6.136;2024-02-21T01:25:41;102027.31;;;9.63;100.00
37202;BME280;37799;52.390;6.136;2024-02-21T01:28:07;102027.38;;;9.54;100.00
37202;BME280;37799;52.390;6.136;2024-02-21T01:30:32;102023.97;;;9.41;100.00
37202;BME280;37799;52.390;6.136;2024-02-21T01:32:58;102026.53;;;9.43;100.00
37202;BME280;37799;52.390;6.136;2024-02-21T01:35:23;102018.75;;;9.46;100.00
37202;BME280;37799;52.390;6.136;2024-02-21T01:37:48;102013.59;;;9.54;100.00
37202;BME280;37799;52.390;6.136;2024-02-21T01:40:14;101996.34;;;9.46;100.00
37202;BME280;37799;52.390;6.136;2024-02-21T01:42:39;101985.16;;;9.37;100.00
37202;BME280;37799;52.390;6.136;2024-02-21T01:45:06;101991.22;;;9.39;100.00
37202;BME280;37799;52.390;6.136;2024-02-21T01:47:31;101989.44;;;9.55;100.00
37202;BME280;37799;52.390;6.136;2024-02-21T01:49:57;101999.75;;;9.67;100.00
37202;BME280;37799;52.390;6.136;2024-02-21T01:52:22;101990.34;;;9.51;100.00
37202;BME280;37799;52.390;6.136;2024-02-21T01:54:48;101991.19;;;9.43;100.00
37202;BME280;37799;52.390;6.136;2024-02-21T01:57:14;101974.00;;;9.39;100.00
37202;BME280;37799;52.390;6.136;2024-02-21T01:59:40;101975.66;;;9.53;100.00
37202;BME280;37799;52.390;6.136;2024-02-21T02:02:05;101982.59;;;9.40;100.00
37202;BME280;37799;52.390;6.136;2024-02-21T02:04:31;101980.00;;;9.40;100.00
37202;BME280;37799;52.390;6.136;2024-02-21T02:06:57;101967.91;;;9.53;100.00
37202;BME280;37799;52.390;6.136;2024-02-21T02:09:24;101962.78;;;9.33;100.00
37202;BME280;37799;52.390;6.136;2024-02-21T02:11:50;101955.81;;;9.59;100.00
37202;BME280;37799;52.390;6.136;2024-02-21T02:14:16;101961.00;;;9.55;100.00
37202;BME280;37799;52.390;6.136;2024-02-21T02:16:41;101948.06;;;9.58;100.00
37202;BME280;37799;52.390;6.136;2024-02-21T02:19:06;101965.31;;;9.46;100.00
37202;BME280;37799;52.390;6.136;2024-02-21T02:21:39;101952.34;;;9.59;100.00
37202;BME280;37799;52.390;6.136;2024-02-21T02:24:08;101941.16;;;9.60;100.00
37202;BME280;37799;52.390;6.136;2024-02-21T02:26:33;101947.22;;;9.53;100.00
37202;BME280;37799;52.390;6.136;2024-02-21T02:29:01;101941.19;;;9.46;100.00
37202;BME280;37799;52.390;6.136;2024-02-21T02:31:26;101947.22;;;9.56;100.00
37202;BME280;37799;52.390;6.136;2024-02-21T02:33:52;101954.97;;;9.54;100.00
37202;BME280;37799;52.390;6.136;2024-02-21T02:36:18;101960.09;;;9.63;100.00
37202;BME280;37799;52.390;6.136;2024-02-21T02:38:43;101951.47;;;9.66;100.00
37202;BME280;37799;52.390;6.136;2024-02-21T02:41:08;101952.34;;;9.59;100.00
37202;BME280;37799;52.390;6.136;2024-02-21T02:43:34;101960.94;;;9.70;100.00
37202;BME280;37799;52.390;6.136;2024-02-21T02:45:59;101953.19;;;9.62;100.00
37202;BME280;37799;52.390;6.136;2024-02-21T02:48:24;101955.84;;;9.55;100.00
37202;BME280;37799;52.390;6.136;2024-02-21T02:50:49;101950.66;;;9.55;100.00
37202;BME280;37799;52.390;6.136;2024-02-21T02:53:15;101945.44;;;9.62;100.00
37202;BME280;37799;52.390;6.136;2024-02-21T02:55:40;101950.66;;;9.55;100.00
37202;BME280;37799;52.390;6.136;2024-02-21T02:58:06;101946.28;;;9.67;100.00
37202;BME280;37799;52.390;6.136;2024-02-21T03:00:31;101944.63;;;9.53;100.00
37202;BME280;37799;52.390;6.136;2024-02-21T03:03:01;101948.09;;;9.53;100.00
37202;BME280;37799;52.390;6.136;2024-02-21T03:05:27;101939.47;;;9.54;100.00
37202;BME280;37799;52.390;6.136;2024-02-21T03:07:52;101935.94;;;9.63;100.00
37202;BME280;37799;52.390;6.136;2024-02-21T03:10:18;101936.84;;;9.60;100.00
37202;BME280;37799;52.390;6.136;2024-02-21T03:12:43;101933.38;;;9.63;100.00
37202;BME280;37799;52.390;6.136;2024-02-21T03:15:09;101931.66;;;9.59;100.00
37202;BME280;37799;52.390;6.136;2024-02-21T03:17:34;101931.66;;;9.62;100.00
37202;BME280;37799;52.390;6.136;2024-02-21T03:20:01;101924.81;;;9.55;100.00
37202;BME280;37799;52.390;6.136;2024-02-21T03:22:29;101932.47;;;9.71;100.00
37202;BME280;37799;52.390;6.136;2024-02-21T03:24:54;101923.03;;;9.60;100.00
37202;BME280;37799;52.390;6.136;2024-02-21T03:27:20;101919.59;;;9.64;100.00
37202;BME280;37799;52.390;6.136;2024-02-21T03:29:45;101914.41;;;9.61;100.00
37202;BME280;37799;52.390;6.136;2024-02-21T03:32:10;101912.72;;;9.57;100.00
37202;BME280;37799;52.390;6.136;2024-02-21T03:34:36;101920.53;;;9.46;100.00
37202;BME280;37799;52.390;6.136;2024-02-21T03:37:01;101916.22;;;9.51;100.00
37202;BME280;37799;52.390;6.136;2024-02-21T03:39:26;101903.22;;;9.60;100.00
37202;BME280;37799;52.390;6.136;2024-02-21T03:41:52;101901.63;;;9.32;100.00
37202;BME280;37799;52.390;6.136;2024-02-21T03:44:17;101898.13;;;9.37;100.00
37202;BME280;37799;52.390;6.136;2024-02-21T03:46:42;101890.34;;;9.50;100.00
37202;BME280;37799;52.390;6.136;2024-02-21T03:49:08;101884.28;;;9.57;100.00
37202;BME280;37799;52.390;6.136;2024-02-21T03:51:33;101889.56;;;9.29;100.00
37202;BME280;37799;52.390;6.136;2024-02-21T03:53:58;101886.97;;;9.38;100.00
37202;BME280;37799;52.390;6.136;2024-02-21T03:56:23;101884.44;;;9.26;100.00
37202;BME280;37799;52.390;6.136;2024-02-21T03:58:49;101886.00;;;9.56;100.00
37202;BME280;37799;52.390;6.136;2024-02-21T04:01:15;101878.34;;;9.33;100.00
37202;BME280;37799;52.390;6.136;2024-02-21T04:03:42;101878.38;;;9.27;100.00
37202;BME280;37799;52.390;6.136;2024-02-21T04:06:08;101880.13;;;9.27;100.00
37202;BME280;37799;52.390;6.136;2024-02-21T04:08:33;101878.38;;;9.24;100.00
37202;BME280;37799;52.390;6.136;2024-02-21T04:10:58;101872.38;;;9.18;100.00
37202;BME280;37799;52.390;6.136;2024-02-21T04:13:24;101872.34;;;9.31;100.00
37202;BME280;37799;52.390;6.136;2024-02-21T04:15:49;101868.91;;;9.28;100.00
37202;BME280;37799;52.390;6.136;2024-02-21T04:18:14;101859.38;;;9.36;100.00
37202;BME280;37799;52.390;6.136;2024-02-21T04:20:40;101861.13;;;9.32;100.00
37202;BME280;37799;52.390;6.136;2024-02-21T04:23:05;101863.69;;;9.34;100.00
37202;BME280;37799;52.390;6.136;2024-02-21T04:25:30;101867.16;;;9.31;100.00
37202;BME280;37799;52.390;6.136;2024-02-21T04:27:56;101875.81;;;9.26;100.00
37202;BME280;37799;52.390;6.136;2024-02-21T04:30:21;101869.78;;;9.25;100.00
37202;BME280;37799;52.390;6.136;2024-02-21T04:32:46;101858.59;;;9.17;100.00
37202;BME280;37799;52.390;6.136;2024-02-21T04:35:12;101856.84;;;9.24;100.00
37202;BME280;37799;52.390;6.136;2024-02-21T04:37:37;101846.56;;;9.14;100.00
37202;BME280;37799;52.390;6.136;2024-02-21T04:40:03;101846.47;;;9.33;100.00
37202;BME280;37799;52.390;6.136;2024-02-21T04:42:28;101849.13;;;9.18;100.00
37202;BME280;37799;52.390;6.136;2024-02-21T04:44:53;101842.25;;;9.18;100.00
37202;BME280;37799;52.390;6.136;2024-02-21T04:47:19;101838.81;;;9.16;100.00
37202;BME280;37799;52.390;6.136;2024-02-21T04:49:45;101843.13;;;9.14;100.00
37202;BME280;37799;52.390;6.136;2024-02-21T04:52:11;101842.22;;;9.20;100.00
37202;BME280;37799;52.390;6.136;2024-02-21T04:54:36;101833.63;;;9.16;100.00
37202;BME280;37799;52.390;6.136;2024-02-21T04:57:01;101834.41;;;9.33;100.00
37202;BME280;37799;52.390;6.136;2024-02-21T04:59:27;101831.88;;;9.26;100.00
37202;BME280;37799;52.390;6.136;2024-02-21T05:01:52;101825.84;;;9.22;100.00
37202;BME280;37799;52.390;6.136;2024-02-21T05:04:17;101832.75;;;9.17;100.00
37202;BME280;37799;52.390;6.136;2024-02-21T05:06:43;101816.41;;;9.18;100.00
37202;BME280;37799;52.390;6.136;2024-02-21T05:09:09;101821.53;;;9.21;100.00
37202;BME280;37799;52.390;6.136;2024-02-21T05:11:35;101823.31;;;9.11;100.00
37202;BME280;37799;52.390;6.136;2024-02-21T05:14:01;101829.28;;;9.24;100.00
37202;BME280;37799;52.390;6.136;2024-02-21T05:16:26;101830.19;;;9.17;100.00
37202;BME280;37799;52.390;6.136;2024-02-21T05:18:51;101826.75;;;9.10;100.00
37202;BME280;37799;52.390;6.136;2024-02-21T05:21:17;101823.31;;;9.11;100.00
37202;BME280;37799;52.390;6.136;2024-02-21T05:23:42;101816.34;;;9.27;100.00
37202;BME280;37799;52.390;6.136;2024-02-21T05:26:07;101805.22;;;9.14;100.00
37202;BME280;37799;52.390;6.136;2024-02-21T05:28:33;101799.16;;;9.20;100.00
37202;BME280;37799;52.390;6.136;2024-02-21T05:30:58;101798.28;;;9.20;100.00
37202;BME280;37799;52.390;6.136;2024-02-21T05:33:24;101806.09;;;9.09;100.00
37202;BME280;37799;52.390;6.136;2024-02-21T05:35:50;101814.66;;;9.26;100.00
37202;BME280;37799;52.390;6.136;2024-02-21T05:38:15;101800.84;;;9.24;100.00
37202;BME280;37799;52.390;6.136;2024-02-21T05:40:41;101800.81;;;9.33;100.00
37202;BME280;37799;52.390;6.136;2024-02-21T05:43:09;101798.22;;;9.38;100.00
37202;BME280;37799;52.390;6.136;2024-02-21T05:45:34;101794.06;;;9.03;100.00
37202;BME280;37799;52.390;6.136;2024-02-21T05:48:00;101793.16;;;9.15;100.00
37202;BME280;37799;52.390;6.136;2024-02-21T05:50:26;101791.41;;;9.17;100.00
37202;BME280;37799;52.390;6.136;2024-02-21T05:52:54;101787.94;;;9.26;100.00
37202;BME280;37799;52.390;6.136;2024-02-21T05:55:20;101780.16;;;9.24;100.00
37202;BME280;37799;52.390;6.136;2024-02-21T05:57:46;101779.38;;;9.16;100.00
37202;BME280;37799;52.390;6.136;2024-02-21T06:00:11;101780.25;;;9.09;100.00
37202;BME280;37799;52.390;6.136;2024-02-21T06:02:37;101765.56;;;9.19;100.00
37202;BME280;37799;52.390;6.136;2024-02-21T06:05:02;101753.63;;;8.95;100.00
37202;BME280;37799;52.390;6.136;2024-02-21T06:07:27;101747.53;;;9.06;100.00
37202;BME280;37799;52.390;6.136;2024-02-21T06:09:53;101757.00;;;9.10;100.00
37202;BME280;37799;52.390;6.136;2024-02-21T06:12:18;101754.41;;;9.09;100.00
37202;BME280;37799;52.390;6.136;2024-02-21T06:14:43;101750.97;;;9.10;100.00
37202;BME280;37799;52.390;6.136;2024-02-21T06:17:09;101752.66;;;9.17;100.00
37202;BME280;37799;52.390;6.136;2024-02-21T06:19:35;101750.94;;;9.16;100.00
37202;BME280;37799;52.390;6.136;2024-02-21T06:22:00;101745.81;;;9.05;100.00
37202;BME280;37799;52.390;6.136;2024-02-21T06:24:25;101744.06;;;9.10;100.00
37202;BME280;37799;52.390;6.136;2024-02-21T06:26:50;101745.94;;;8.85;100.00
37202;BME280;37799;52.390;6.136;2024-02-21T06:29:16;101744.91;;;9.15;100.00
37202;BME280;37799;52.390;6.136;2024-02-21T06:31:41;101749.28;;;9.03;100.00
37202;BME280;37799;52.390;6.136;2024-02-21T06:34:06;101745.88;;;8.96;100.00
37202;BME280;37799;52.390;6.136;2024-02-21T06:36:32;101748.44;;;9.02;100.00
37202;BME280;37799;52.390;6.136;2024-02-21T06:38:58;101743.34;;;8.81;100.00
37202;BME280;37799;52.390;6.136;2024-02-21T06:41:24;101745.13;;;8.74;100.00
37202;BME280;37799;52.390;6.136;2024-02-21T06:43:49;101739.91;;;8.80;100.00
37202;BME280;37799;52.390;6.136;2024-02-21T06:46:27;101745.94;;;8.79;100.00
37202;BME280;37799;52.390;6.136;2024-02-21T06:48:56;101745.97;;;8.75;100.00
37202;BME280;37799;52.390;6.136;2024-02-21T06:51:22;101746.81;;;8.86;100.00
37202;BME280;37799;52.390;6.136;2024-02-21T06:53:48;101752.81;;;8.90;100.00
37202;BME280;37799;52.390;6.136;2024-02-21T06:56:13;101746.81;;;8.80;100.00
37202;BME280;37799;52.390;6.136;2024-02-21T06:58:38;101749.38;;;8.81;100.00
37202;BME280;37799;52.390;6.136;2024-02-21T07:01:04;101742.50;;;8.82;100.00
37202;BME280;37799;52.390;6.136;2024-02-21T07:03:29;101742.44;;;8.93;100.00
37202;BME280;37799;52.390;6.136;2024-02-21T07:05:54;101757.09;;;8.91;100.00
37202;BME280;37799;52.390;6.136;2024-02-21T07:08:20;101745.94;;;8.82;100.00
37202;BME280;37799;52.390;6.136;2024-02-21T07:10:45;101747.63;;;8.90;100.00
37202;BME280;37799;52.390;6.136;2024-02-21T07:13:10;101742.47;;;8.90;100.00
37202;BME280;37799;52.390;6.136;2024-02-21T07:15:36;101748.47;;;8.95;100.00
37202;BME280;37799;52.390;6.136;2024-02-21T07:18:03;101738.19;;;8.87;100.00
37202;BME280;37799;52.390;6.136;2024-02-21T07:20:28;101740.72;;;8.95;100.00
37202;BME280;37799;52.390;6.136;2024-02-21T07:22:54;101733.84;;;8.92;100.00
37202;BME280;37799;52.390;6.136;2024-02-21T07:25:19;101729.50;;;8.96;100.00
37202;BME280;37799;52.390;6.136;2024-02-21T07:27:45;101726.94;;;8.96;100.00
37202;BME280;37799;52.390;6.136;2024-02-21T07:30:10;101730.38;;;9.01;100.00
37202;BME280;37799;52.390;6.136;2024-02-21T07:32:36;101719.09;;;9.09;100.00
37202;BME280;37799;52.390;6.136;2024-02-21T07:35:01;101714.84;;;9.04;100.00
37202;BME280;37799;52.390;6.136;2024-02-21T07:37:26;101718.31;;;8.97;100.00
37202;BME280;37799;52.390;6.136;2024-02-21T07:39:52;101706.28;;;8.99;100.00
37202;BME280;37799;52.390;6.136;2024-02-21T07:42:17;101706.22;;;9.05;100.00
37202;BME280;37799;52.390;6.136;2024-02-21T07:44:42;101701.09;;;8.99;100.00
37202;BME280;37799;52.390;6.136;2024-02-21T07:47:07;101704.44;;;9.10;100.00
37202;BME280;37799;52.390;6.136;2024-02-21T07:49:33;101699.31;;;9.07;100.00
37202;BME280;37799;52.390;6.136;2024-02-21T07:52:05;101695.03;;;9.04;100.00
37202;BME280;37799;52.390;6.136;2024-02-21T07:54:30;101690.69;;;9.09;100.00
37202;BME280;37799;52.390;6.136;2024-02-21T07:56:55;101692.41;;;9.09;100.00
37202;BME280;37799;52.390;6.136;2024-02-21T07:59:21;101687.19;;;9.18;100.00
37202;BME280;37799;52.390;6.136;2024-02-21T08:01:46;101679.44;;;9.16;100.00
37202;BME280;37799;52.390;6.136;2024-02-21T08:04:11;101674.19;;;9.30;100.00
37202;BME280;37799;52.390;6.136;2024-02-21T08:06:37;101666.47;;;9.27;100.00
37202;BME280;37799;52.390;6.136;2024-02-21T08:09:02;101668.16;;;9.28;100.00
37202;BME280;37799;52.390;6.136;2024-02-21T08:11:28;101662.88;;;9.45;100.00
37202;BME280;37799;52.390;6.136;2024-02-21T08:13:53;101661.25;;;9.30;100.00
37202;BME280;37799;52.390;6.136;2024-02-21T08:16:18;101659.53;;;9.31;100.00
37202;BME280;37799;52.390;6.136;2024-02-21T08:18:44;101661.28;;;9.27;100.00
37202;BME280;37799;52.390;6.136;2024-02-21T08:21:09;101659.59;;;9.26;100.00
37202;BME280;37799;52.390;6.136;2024-02-21T08:23:35;101659.50;;;9.35;100.00
37202;BME280;37799;52.390;6.136;2024-02-21T08:26:03;101656.94;;;9.31;100.00
37202;BME280;37799;52.390;6.136;2024-02-21T08:28:28;101656.97;;;9.29;100.00
37202;BME280;37799;52.390;6.136;2024-02-21T08:30:54;101655.16;;;9.42;100.00
37202;BME280;37799;52.390;6.136;2024-02-21T08:33:19;101656.00;;;9.42;100.00
37202;BME280;37799;52.390;6.136;2024-02-21T08:35:49;101638.72;;;9.51;100.00
37202;BME280;37799;52.390;6.136;2024-02-21T08:38:14;101640.38;;;9.56;100.00
37202;BME280;37799;52.390;6.136;2024-02-21T08:40:40;101630.97;;;9.46;100.00
37202;BME280;37799;52.390;6.136;2024-02-21T08:43:05;101626.63;;;9.50;100.00
37202;BME280;37799;52.390;6.136;2024-02-21T08:45:30;101628.25;;;9.60;100.00
37202;BME280;37799;52.390;6.136;2024-02-21T08:47:55;101627.31;;;9.68;100.00
37202;BME280;37799;52.390;6.136;2024-02-21T08:50:21;101620.41;;;9.70;100.00
37202;BME280;37799;52.390;6.136;2024-02-21T08:52:46;101623.81;;;9.74;100.00
37202;BME280;37799;52.390;6.136;2024-02-21T08:55:11;101627.28;;;9.73;100.00
37202;BME280;37799;52.390;6.136;2024-02-21T08:57:37;101615.13;;;9.81;100.00
37202;BME280;37799;52.390;6.136;2024-02-21T09:00:06;101610.16;;;9.60;100.00
37202;BME280;37799;52.390;6.136;2024-02-21T09:02:41;101612.81;;;9.54;100.00
37202;BME280;37799;52.390;6.136;2024-02-21T09:05:10;101606.69;;;9.61;100.00
37202;BME280;37799;52.390;6.136;2024-02-21T09:07:35;101610.19;;;9.58;100.00
37202;BME280;37799;52.390;6.136;2024-02-21T09:10:01;101610.31;;;9.44;100.00
37202;BME280;37799;52.390;6.136;2024-02-21T09:12:26;101599.84;;;9.58;100.00
37202;BME280;37799;52.390;6.136;2024-02-21T09:14:52;101599.63;;;9.81;100.00
37202;BME280;37799;52.390;6.136;2024-02-21T09:17:17;101605.75;;;9.71;100.00
37202;BME280;37799;52.390;6.136;2024-02-21T09:19:44;101600.63;;;9.63;100.00
37202;BME280;37799;52.390;6.136;2024-02-21T09:22:09;101606.66;;;9.67;100.00
37202;BME280;37799;52.390;6.136;2024-02-21T09:24:35;101599.78;;;9.66;100.00
37202;BME280;37799;52.390;6.136;2024-02-21T09:27:00;101591.03;;;9.74;100.00
37202;BME280;37799;52.390;6.136;2024-02-21T09:29:25;101596.22;;;9.74;100.00
37202;BME280;37799;52.390;6.136;2024-02-21T09:31:51;101592.75;;;9.77;100.00
37202;BME280;37799;52.390;6.136;2024-02-21T09:34:16;101580.03;;;9.56;100.00
37202;BME280;37799;52.390;6.136;2024-02-21T09:36:41;101584.31;;;9.60;100.00
37202;BME280;37799;52.390;6.136;2024-02-21T09:39:07;101576.53;;;9.60;100.00
37202;BME280;37799;52.390;6.136;2024-02-21T09:41:36;101569.66;;;9.59;100.00
37202;BME280;37799;52.390;6.136;2024-02-21T09:44:04;101566.16;;;9.63;100.00
37202;BME280;37799;52.390;6.136;2024-02-21T09:46:52;101570.31;;;9.81;100.00
37202;BME280;37799;52.390;6.136;2024-02-21T09:49:34;101565.09;;;9.84;100.00
37202;BME280;37799;52.390;6.136;2024-02-21T09:52:04;101553.78;;;9.92;100.00
37202;BME280;37799;52.390;6.136;2024-02-21T09:54:30;101546.84;;;9.94;100.00
37202;BME280;37799;52.390;6.136;2024-02-21T09:57:02;101539.88;;;9.99;100.00
37202;BME280;37799;52.390;6.136;2024-02-21T09:59:30;101539.69;;;10.15;100.00
37202;BME280;37799;52.390;6.136;2024-02-21T10:01:56;101526.88;;;10.07;100.00
37202;BME280;37799;52.390;6.136;2024-02-21T10:04:21;101530.94;;;10.29;100.00
37202;BME280;37799;52.390;6.136;2024-02-21T10:06:47;101524.09;;;10.24;100.00
37202;BME280;37799;52.390;6.136;2024-02-21T10:11:48;101509.50;;;10.15;100.00
37202;BME280;37799;52.390;6.136;2024-02-21T10:14:15;101507.72;;;10.20;100.00
37202;BME280;37799;52.390;6.136;2024-02-21T10:16:40;101508.25;;;10.45;100.00
37202;BME280;37799;52.390;6.136;2024-02-21T10:19:06;101501.31;;;10.47;100.00
37202;BME280;37799;52.390;6.136;2024-02-21T10:21:31;101497.94;;;10.42;100.00
37202;BME280;37799;52.390;6.136;2024-02-21T10:23:56;101495.16;;;10.54;100.00
37202;BME280;37799;52.390;6.136;2024-02-21T10:26:22;101490.59;;;10.72;100.00
37202;BME280;37799;52.390;6.136;2024-02-21T10:28:47;101477.69;;;10.69;100.00
37202;BME280;37799;52.390;6.136;2024-02-21T10:31:27;101480.28;;;10.69;100.00
37202;BME280;37799;52.390;6.136;2024-02-21T10:33:59;101474.13;;;10.74;100.00
37202;BME280;37799;52.390;6.136;2024-02-21T10:36:25;101466.38;;;10.73;100.00
37202;BME280;37799;52.390;6.136;2024-02-21T10:38:51;101457.72;;;10.75;100.00
37202;BME280;37799;52.390;6.136;2024-02-21T10:41:19;101456.13;;;10.67;100.00
37202;BME280;37799;52.390;6.136;2024-02-21T10:43:49;101451.78;;;10.69;100.00
37202;BME280;37799;52.390;6.136;2024-02-21T10:46:18;101439.69;;;10.68;100.00
37202;BME280;37799;52.390;6.136;2024-02-21T10:48:45;101442.66;;;10.46;100.00
37202;BME280;37799;52.390;6.136;2024-02-21T10:51:20;101444.88;;;10.69;100.00
37202;BME280;37799;52.390;6.136;2024-02-21T10:53:54;101435.50;;;10.60;100.00
37202;BME280;37799;52.390;6.136;2024-02-21T10:56:35;101430.94;;;10.75;100.00
37202;BME280;37799;52.390;6.136;2024-02-21T10:59:03;101426.13;;;10.53;100.00
37202;BME280;37799;52.390;6.136;2024-02-21T11:01:29;101425.22;;;10.57;100.00
37202;BME280;37799;52.390;6.136;2024-02-21T11:03:58;101425.34;;;10.48;100.00
37202;BME280;37799;52.390;6.136;2024-02-21T11:06:26;101419.69;;;10.23;100.00
37202;BME280;37799;52.390;6.136;2024-02-21T11:11:25;101399.88;;;10.21;100.00
37202;BME280;37799;52.390;6.136;2024-02-21T11:13:51;101402.06;;;10.47;100.00
37202;BME280;37799;52.390;6.136;2024-02-21T11:16:22;101402.28;;;10.34;100.00
37202;BME280;37799;52.390;6.136;2024-02-21T11:18:48;101396.13;;;10.42;100.00
37202;BME280;37799;52.390;6.136;2024-02-21T11:21:13;101394.41;;;10.39;100.00
37202;BME280;37799;52.390;6.136;2024-02-21T11:23:39;101383.38;;;10.29;100.00
37202;BME280;37799;52.390;6.136;2024-02-21T11:26:18;101371.06;;;10.44;100.00
37202;BME280;37799;52.390;6.136;2024-02-21T11:28:44;101365.75;;;10.50;100.00
37202;BME280;37799;52.390;6.136;2024-02-21T11:31:13;101351.34;;;10.35;100.00
37202;BME280;37799;52.390;6.136;2024-02-21T11:33:40;101339.34;;;10.31;100.00
37202;BME280;37799;52.390;6.136;2024-02-21T11:36:10;101319.63;;;10.22;100.00
37202;BME280;37799;52.390;6.136;2024-02-21T11:38:36;101305.00;;;10.20;100.00
37202;BME280;37799;52.390;6.136;2024-02-21T11:41:01;101289.41;;;10.24;100.00
37202;BME280;37799;52.390;6.136;2024-02-21T11:43:27;101285.97;;;10.24;100.00
37202;BME280;37799;52.390;6.136;2024-02-21T11:46:01;101279.94;;;10.23;100.00
37202;BME280;37799;52.390;6.136;2024-02-21T11:48:29;101273.06;;;10.22;100.00
37202;BME280;37799;52.390;6.136;2024-02-21T11:50:55;101268.66;;;10.26;100.00
37202;BME280;37799;52.390;6.136;2024-02-21T11:53:21;101267.63;;;10.36;100.00
37202;BME280;37799;52.390;6.136;2024-02-21T11:55:46;101298.03;;;10.25;100.00
37202;BME280;37799;52.390;6.136;2024-02-21T11:58:11;101302.50;;;10.12;100.00
37202;BME280;37799;52.390;6.136;2024-02-21T12:00:38;101280.28;;;10.00;100.00
37202;BME280;37799;52.390;6.136;2024-02-21T12:03:04;101294.00;;;10.07;100.00
37202;BME280;37799;52.390;6.136;2024-02-21T12:05:30;101293.00;;;10.13;100.00
37202;BME280;37799;52.390;6.136;2024-02-21T12:07:56;101281.06;;;10.05;100.00
37202;BME280;37799;52.390;6.136;2024-02-21T12:10:23;101281.97;;;10.04;100.00
37202;BME280;37799;52.390;6.136;2024-02-21T12:12:48;101279.03;;;10.26;100.00
37202;BME280;37799;52.390;6.136;2024-02-21T12:15:18;101268.13;;;10.07;100.00
37202;BME280;37799;52.390;6.136;2024-02-21T12:17:43;101247.38;;;10.09;100.00
37202;BME280;37799;52.390;6.136;2024-02-21T12:20:09;101246.31;;;10.22;100.00
37202;BME280;37799;52.390;6.136;2024-02-21T12:22:37;101251.47;;;10.23;100.00
37202;BME280;37799;52.390;6.136;2024-02-21T12:25:04;101247.28;;;10.13;100.00
37202;BME280;37799;52.390;6.136;2024-02-21T12:27:29;101258.69;;;10.03;100.00
37202;BME280;37799;52.390;6.136;2024-02-21T12:29:55;101253.28;;;10.17;100.00
37202;BME280;37799;52.390;6.136;2024-02-21T12:32:20;101243.72;;;10.22;100.00
37202;BME280;37799;52.390;6.136;2024-02-21T12:34:46;101225.34;;;9.86;100.00
37202;BME280;37799;52.390;6.136;2024-02-21T12:37:11;101217.28;;;10.04;100.00
37202;BME280;37799;52.390;6.136;2024-02-21T12:39:41;101200.16;;;9.97;100.00
37202;BME280;37799;52.390;6.136;2024-02-21T12:42:06;101177.88;;;9.90;100.00
37202;BME280;37799;52.390;6.136;2024-02-21T12:44:31;101164.00;;;9.94;100.00
37202;BME280;37799;52.390;6.136;2024-02-21T12:46:57;101154.19;;;10.10;100.00